Cleator Moor, United Kingdom
Current Conditions -  °F | °C
As of 12:50 AM on Tuesday 27 Jan 2015 (Local Time) from EGOM Reporting Station
Haze Haze  
Wind Chill: 30°   Ceiling: 1100
Heat Index: 37°   Visibility: 4mi
Dew Point: 37°   Wind: 10mph
Humidity: 100%   Direction: 260°W
Pressure: 30.21"   Gusts: NA
Location:  54.52°N, 3.52°W
Report Text: EGOM 270050Z AUTO 26009KT 6000 BR FEW002/// BKN011/// 03/03 Q1023
Loading
Personal Weather Stations






























Interactive Weather Map New forecast layout! Learn more

10-Day Weather Forecast

Advertisements
Track Severe Weather on mobile